Airfield :
LOGIN :

Register | Disclaimer

   EN    FR    IT 

 










Legend :    VFR   Marginal VFR   IFR   Intensive IFR   Very Intensive IFR
Visi :
Ceiling :
>= 8 km
>= 3000ft
5 to 8 km
1000 to 3000 ft
1500m to 5 km
500 to 1000 ft
800 to 1500m
200 to 500 ft
< 800m
< 200 ft
Symbols :   Thunderstorms  Fog  Heavy snow  Heavy precipitations  Wind > 20 kt
SIGMETs :     Misc.  Thunderstorms  Icing  Turbulence  Mountain Waves  Volcanic Ashes






- Airport Elevation : 100 ft


EBDT - Schaffen

CURRENT METAR :
  • 150255Z AUTO 21005KT 9999 SCT140/// OVC160/// 17/12 Q1005 BLU

EXPIRED METARs :
  • 150225Z AUTO 21006KT 9999 FEW140/// BKN160/// 17/12 Q1005 BLU
  • 150155Z AUTO 22007KT 9999 SCT150/// BKN220/// 17/12 Q1005 BLU
  • 150125Z AUTO 20007KT 9999 OVC150/// 17/13 Q1005 BLU
  • 150055Z AUTO 19007KT 9999 OVC150/// 17/14 Q1005 BLU
  • 150025Z AUTO 19007KT 9999 OVC150/// 17/14 Q1006 BLU

TAF TAF EBDT
Valid from the 14 at 19:00 until the 15 at 07:00 UTC


141541Z 1419/1507 14006KT 9999 FEW015 BKN110
BECMG 1501/1503 20009KT SCT020 BKN090
BECMG 1504/1506 36005KT 8000 -RA BKN018 OVC060



MET'MAP, your aeronautical weather chart ! - Copyright ORBIFLY December 2007 - Disclaimer

ORBIFLY MET'MAP TEAM :

Programming & Development : Alexandra Zaïnal
Concept & Development : Baudouin d'Aumeries
Co-Development & Prog : Marc-Olivier Méhu
Technical & hardware support : Manuel Goepfert

Contact : metmap@orbifly.com




SOURCES & CREDITS :

   NOAA